Clipper Saga — LAFY6 — position and weather

sailwx.info

Track history (hours):
 
Tides and Currents Weather Stations Pressure Air Temp Water Temp Dewpoint Dewpoint Depression Visibility Wind Speed Wind Dir Waves Ship Positions

Clipper Saga

Last reported at 2014-Dec-17 02:24 UTC. Time now 2014-Dec-18 15:26 UTC.
Position N 58°04' E 012°09'.

Length 89 m; draft 5.9 m.

Type: Ship (hazmat cat C). MMSI: 246657008.

Date/timePositionNaut miles runAvg speedWind from/ knotsBaromVisibWave heightAir tempDewpointWater temp
2014-Dec-17 02:24N 58°04' E 012°09'6 7.4
2014-Dec-17 01:33N 57°58' E 012°08'8 7.6
2014-Dec-17 00:33N 57°51' E 012°01'5 5.4
2014-Dec-16 23:33N 57°46' E 012°00'5 4.7
2014-Dec-16 22:33N 57°42' E 011°55'10 9.6
2014-Dec-16 21:33N 57°37' E 011°40'6 6.5
2014-Dec-16 20:33N 57°39' E 011°29'6 6.3
2014-Dec-16 19:33N 57°42' E 011°18'7 6.8
2014-Dec-16 18:33N 57°44' E 011°06'9 8.5
2014-Dec-16 17:30N 57°48' E 010°51'1111.2
2014-Dec-16 16:33N 57°48' E 010°31'9910.7
2014-Dec-16 07:18N 57°42' E 007°26'67 9.4
2014-Dec-16 00:06N 58°11' E 005°31'  
2014-Dec-12 15:03N 63°06' E 007°55'68 2.8
2014-Dec-11 14:29N 62°47' E 005°32'  
Track history (hours):
 
Tides and Currents Weather Stations Pressure Air Temp Water Temp Dewpoint Dewpoint Depression Visibility Wind Speed Wind Dir Waves Ship Positions

Clipper Saga

Last reported at 2014-Dec-17 02:24 UTC. Time now 2014-Dec-18 15:26 UTC.
Position N 58°04' E 012°09'.

Length 89 m; draft 5.9 m.

Type: Ship (hazmat cat C). MMSI: 246657008.

Date/timePositionNaut miles runAvg speedWind from/ knotsBaromVisibWave heightAir tempDewpointWater temp
2014-Dec-17 02:24N 58°04' E 012°09'6 7.4
2014-Dec-17 01:33N 57°58' E 012°08'8 7.6
2014-Dec-17 00:33N 57°51' E 012°01'5 5.4
2014-Dec-16 23:33N 57°46' E 012°00'5 4.7
2014-Dec-16 22:33N 57°42' E 011°55'10 9.6
2014-Dec-16 21:33N 57°37' E 011°40'6 6.5
2014-Dec-16 20:33N 57°39' E 011°29'6 6.3
2014-Dec-16 19:33N 57°42' E 011°18'7 6.8
2014-Dec-16 18:33N 57°44' E 011°06'9 8.5
2014-Dec-16 17:30N 57°48' E 010°51'1111.2
2014-Dec-16 16:33N 57°48' E 010°31'9910.7
2014-Dec-16 07:18N 57°42' E 007°26'67 9.4
2014-Dec-16 00:06N 58°11' E 005°31'  
2014-Dec-12 15:03N 63°06' E 007°55'68 2.8
2014-Dec-11 14:29N 62°47' E 005°32'  

Dump ship's entire track history